There are multiple Weather-warnings   Click here for more information


Meteo18 Weather Cam more information Meteo18 Weather Cam


warning for Thunderstorms more information blitzortung!


Rain radar more information rain snow radar


Visit our other weather sites:

Template documentation
and downloads

And another site



Weather Underground History page Text

Daily Summary for November 30, 2017 Units:  Metric    English   Both
« Previous Day
Next Day »
Daily Weekly Monthly Yearly Custom
  High: Low: Average:
Temperature: 3.3 °C -0.2 °C 2 °C
Dew Point: 2.2 °C -0.8 °C 1 °C
Humidity: 96 % 90 % 94 %
Wind Speed: 19.3 km/h 0.0 km/h 5.2 km/h
Wind Gust: 30.6 km/h - -
Wind:- - WNW
Pressure: 1012.8 hPa 1010.0 hPa -
Precipitation: 3.6 mm    
Historical Graphs
 
 
Tabular Data for November 30, 2017
Time Temperature Dew Point Pressure Wind Wind Speed Wind Gust Humidity Rainfall Rate (Hourly)
00:12 2.7 °C 1.7 °C 1011.4 hPa West 3.2 km/h 4.8 km/h 93 % 0.0 mm
00:17 2.7 °C 1.7 °C 1011.4 hPa WNW 6.4 km/h 6.4 km/h 93 % 0.0 mm
00:22 2.7 °C 1.7 °C 1011.4 hPa West 3.2 km/h 6.4 km/h 93 % 0.0 mm
00:37 2.7 °C 1.7 °C 1011.4 hPa WNW 3.2 km/h 9.7 km/h 93 % 0.0 mm
00:47 2.7 °C 1.7 °C 1011.4 hPa WNW 1.6 km/h 8.0 km/h 93 % 0.0 mm
00:52 2.7 °C 1.7 °C 1011.4 hPa West 4.8 km/h 8.0 km/h 93 % 0.0 mm
00:57 2.7 °C 1.7 °C 1011.4 hPa West 3.2 km/h 6.4 km/h 93 % 0.0 mm
01:02 2.6 °C 1.6 °C 1011.4 hPa West 6.4 km/h 6.4 km/h 93 % 0.0 mm
01:17 2.6 °C 1.6 °C 1011.1 hPa WSW 3.2 km/h 11.3 km/h 93 % 0.0 mm
01:22 2.6 °C 1.6 °C 1011.4 hPa WNW 1.6 km/h 11.3 km/h 93 % 0.0 mm
01:42 2.5 °C 1.6 °C 1011.1 hPa WNW 4.8 km/h 9.7 km/h 94 % 0.0 mm
01:47 2.5 °C 1.6 °C 1011.1 hPa West 8.0 km/h 9.7 km/h 94 % 0.0 mm
01:52 2.5 °C 1.5 °C 1011.1 hPa WNW 8.0 km/h 9.7 km/h 93 % 0.0 mm
01:57 2.4 °C 1.4 °C 1011.1 hPa West 8.0 km/h 12.9 km/h 93 % 0.0 mm
02:12 2.4 °C 1.4 °C 1011.1 hPa WNW 8.0 km/h 12.9 km/h 93 % 0.0 mm
02:17 2.4 °C 1.4 °C 1011.1 hPa West 3.2 km/h 16.1 km/h 93 % 0.0 mm
02:22 2.4 °C 1.4 °C 1011.1 hPa WNW 6.4 km/h 16.1 km/h 93 % 0.0 mm
02:37 2.4 °C 1.4 °C 1011.1 hPa West 8.0 km/h 11.3 km/h 93 % 0.0 mm
02:47 2.3 °C 1.4 °C 1011.4 hPa WNW 11.3 km/h 12.9 km/h 94 % 0.0 mm
02:52 2.3 °C 1.4 °C 1011.4 hPa West 6.4 km/h 12.9 km/h 94 % 0.0 mm
02:57 2.3 °C 1.4 °C 1011.4 hPa West 4.8 km/h 11.3 km/h 94 % 0.0 mm
03:02 2.4 °C 1.5 °C 1011.4 hPa West 4.8 km/h 11.3 km/h 94 % 0.0 mm
03:12 2.4 °C 1.5 °C 1011.4 hPa West 4.8 km/h 9.7 km/h 94 % 0.0 mm
03:37 2.4 °C 1.5 °C 1011.1 hPa WNW 8.0 km/h 12.9 km/h 94 % 0.0 mm
03:42 2.4 °C 1.5 °C 1011.1 hPa NW 19.3 km/h 19.3 km/h 94 % 0.0 mm
03:52 2.4 °C 1.5 °C 1011.1 hPa West 6.4 km/h 19.3 km/h 94 % 0.0 mm
04:02 2.4 °C 1.5 °C 1011.1 hPa WNW 6.4 km/h 19.3 km/h 94 % 0.0 mm
04:12 2.3 °C 1.4 °C 1011.1 hPa NW 8.0 km/h 12.9 km/h 94 % 0.0 mm
04:17 2.3 °C 1.4 °C 1011.1 hPa WNW 6.4 km/h 17.7 km/h 94 % 0.0 mm
04:32 2.3 °C 1.4 °C 1011.1 hPa WNW 4.8 km/h 12.9 km/h 94 % 0.0 mm
04:42 2.2 °C 1.3 °C 1011.1 hPa WNW 3.2 km/h 17.7 km/h 94 % 0.3 mm
04:47 2.2 °C 1.3 °C 1011.1 hPa WNW 11.3 km/h 16.1 km/h 94 % 0.5 mm
05:02 2.2 °C 1.3 °C 1011.1 hPa WNW 3.2 km/h 16.1 km/h 94 % 0.5 mm
05:07 2.2 °C 1.3 °C 1011.1 hPa NW 6.4 km/h 17.7 km/h 94 % 0.5 mm
05:12 2.2 °C 1.3 °C 1011.1 hPa NW 6.4 km/h 17.7 km/h 94 % 0.5 mm
05:17 2.2 °C 1.5 °C 1011.1 hPa NW 1.6 km/h 17.7 km/h 95 % 0.5 mm
05:22 2.3 °C 1.6 °C 1011.1 hPa NNW 4.8 km/h 17.7 km/h 95 % 0.5 mm
05:42 2.4 °C 1.5 °C 1011.1 hPa WNW 6.4 km/h 16.1 km/h 94 % 0.3 mm
05:47 2.4 °C 1.5 °C 1011.1 hPa NW 8.0 km/h 12.9 km/h 94 % 0.0 mm
05:52 2.4 °C 1.5 °C 1011.1 hPa West 3.2 km/h 12.9 km/h 94 % 0.0 mm
06:02 2.4 °C 1.5 °C 1011.1 hPa West 1.6 km/h 12.9 km/h 94 % 0.0 mm
06:12 2.4 °C 1.5 °C 1011.1 hPa WNW 6.4 km/h 14.5 km/h 94 % 0.0 mm
06:17 2.4 °C 1.5 °C 1011.1 hPa NW 4.8 km/h 11.3 km/h 94 % 0.0 mm
06:22 2.4 °C 1.5 °C 1011.1 hPa WNW 3.2 km/h 11.3 km/h 94 % 0.0 mm
06:27 2.4 °C 1.5 °C 1011.4 hPa West 6.4 km/h 11.3 km/h 94 % 0.0 mm
06:32 2.5 °C 1.6 °C 1011.4 hPa WNW 6.4 km/h 11.3 km/h 94 % 0.0 mm
06:37 2.5 °C 1.6 °C 1011.4 hPa WNW 9.7 km/h 11.3 km/h 94 % 0.0 mm
06:42 2.5 °C 1.6 °C 1011.4 hPa WNW 6.4 km/h 16.1 km/h 94 % 0.0 mm
06:52 2.5 °C 1.6 °C 1011.4 hPa NW 8.0 km/h 16.1 km/h 94 % 0.0 mm
06:57 2.5 °C 1.6 °C 1011.4 hPa WNW 11.3 km/h 14.5 km/h 94 % 0.0 mm
07:07 2.5 °C 1.6 °C 1011.4 hPa NW 1.6 km/h 14.5 km/h 94 % 0.0 mm
07:12 2.5 °C 1.6 °C 1011.4 hPa WSW 3.2 km/h 19.3 km/h 94 % 0.0 mm
07:17 2.4 °C 1.5 °C 1011.4 hPa WNW 6.4 km/h 19.3 km/h 94 % 0.0 mm
07:22 2.5 °C 1.6 °C 1011.4 hPa NW 4.8 km/h 14.5 km/h 94 % 0.3 mm
07:32 2.4 °C 1.5 °C 1011.4 hPa WNW 3.2 km/h 14.5 km/h 94 % 0.3 mm
07:42 2.4 °C 1.5 °C 1011.4 hPa NW 1.6 km/h 16.1 km/h 94 % 0.3 mm
07:52 2.4 °C 1.5 °C 1011.7 hPa WNW 11.3 km/h 11.3 km/h 94 % 0.3 mm
07:57 2.4 °C 1.5 °C 1011.7 hPa WSW 9.7 km/h 11.3 km/h 94 % 0.3 mm
08:02 2.4 °C 1.5 °C 1011.7 hPa WNW 9.7 km/h 19.3 km/h 94 % 0.3 mm
08:07 2.4 °C 1.5 °C 1011.7 hPa West 1.6 km/h 19.3 km/h 94 % 0.3 mm
08:17 2.4 °C 1.5 °C 1011.7 hPa West 1.6 km/h 19.3 km/h 94 % 0.0 mm
08:22 2.4 °C 1.5 °C 1011.7 hPa NW 3.2 km/h 11.3 km/h 94 % 0.0 mm
08:32 2.4 °C 1.5 °C 1012.1 hPa WNW 3.2 km/h 14.5 km/h 94 % 0.0 mm
08:42 2.5 °C 1.6 °C 1012.1 hPa NW 4.8 km/h 16.1 km/h 94 % 0.0 mm
08:52 2.5 °C 1.6 °C 1012.1 hPa WNW 8.0 km/h 16.1 km/h 94 % 0.0 mm
09:02 2.5 °C 1.6 °C 1012.4 hPa NW 9.7 km/h 17.7 km/h 94 % 0.0 mm
09:17 2.5 °C 1.6 °C 1012.4 hPa West 3.2 km/h 12.9 km/h 94 % 0.0 mm
09:32 2.4 °C 1.4 °C 1012.8 hPa NW 8.0 km/h 17.7 km/h 93 % 0.0 mm
09:42 2.5 °C 1.5 °C 1012.4 hPa WNW 6.4 km/h 17.7 km/h 93 % 0.0 mm
09:47 2.6 °C 1.6 °C 1012.4 hPa West 3.2 km/h 17.7 km/h 93 % 0.0 mm
10:02 2.8 °C 1.8 °C 1012.4 hPa West 6.4 km/h 9.7 km/h 93 % 0.0 mm
10:12 2.9 °C 1.7 °C 1012.4 hPa NW 3.2 km/h 14.5 km/h 92 % 0.0 mm
10:17 3.1 °C 1.9 °C 1012.4 hPa West 6.4 km/h 14.5 km/h 92 % 0.0 mm
10:27 3.2 °C 1.7 °C 1012.8 hPa WNW 6.4 km/h 17.7 km/h 90 % 0.0 mm
10:32 3.2 °C 1.7 °C 1012.8 hPa WNW 8.0 km/h 14.5 km/h 90 % 0.0 mm
10:47 3.1 °C 1.8 °C 1012.8 hPa WNW 9.7 km/h 20.9 km/h 91 % 0.0 mm
10:57 2.9 °C 1.6 °C 1012.8 hPa WNW 8.0 km/h 20.9 km/h 91 % 0.0 mm
11:02 3.0 °C 1.8 °C 1012.8 hPa NW 4.8 km/h 14.5 km/h 92 % 0.0 mm
11:12 3.1 °C 1.9 °C 1012.8 hPa SW 3.2 km/h 12.9 km/h 92 % 0.0 mm
11:17 3.1 °C 1.8 °C 1012.8 hPa NW 4.8 km/h 12.9 km/h 91 % 0.0 mm
11:22 3.1 °C 1.8 °C 1012.8 hPa WSW 4.8 km/h 14.5 km/h 91 % 0.0 mm
11:27 3.1 °C 1.8 °C 1012.8 hPa West 1.6 km/h 14.5 km/h 91 % 0.0 mm
11:32 3.2 °C 1.9 °C 1012.8 hPa NW 6.4 km/h 14.5 km/h 91 % 0.0 mm
11:37 3.2 °C 1.9 °C 1012.4 hPa West 9.7 km/h 14.5 km/h 91 % 0.0 mm
11:47 3.3 °C 2.0 °C 1012.4 hPa West 8.0 km/h 14.5 km/h 91 % 0.0 mm
11:52 3.3 °C 1.8 °C 1012.4 hPa WNW 9.7 km/h 14.5 km/h 90 % 0.0 mm
12:02 3.2 °C 1.7 °C 1012.1 hPa WNW 6.4 km/h 16.1 km/h 90 % 0.0 mm
12:12 3.2 °C 1.9 °C 1012.1 hPa West 9.7 km/h 14.5 km/h 91 % 0.0 mm
12:17 3.1 °C 1.8 °C 1012.1 hPa West 4.8 km/h 14.5 km/h 91 % 0.0 mm
12:27 3.1 °C 1.8 °C 1012.1 hPa West 4.8 km/h 12.9 km/h 91 % 0.0 mm
12:32 3.1 °C 1.8 °C 1012.1 hPa West 12.9 km/h 12.9 km/h 91 % 0.0 mm
12:37 3.0 °C 1.7 °C 1011.7 hPa West 3.2 km/h 16.1 km/h 91 % 0.0 mm
12:42 2.9 °C 1.6 °C 1011.7 hPa WNW 9.7 km/h 16.1 km/h 91 % 0.0 mm
12:47 2.9 °C 1.6 °C 1011.7 hPa West 4.8 km/h 16.1 km/h 91 % 0.0 mm
12:52 2.9 °C 1.6 °C 1011.7 hPa West 6.4 km/h 16.1 km/h 91 % 0.0 mm
13:02 2.9 °C 1.7 °C 1011.7 hPa West 8.0 km/h 16.1 km/h 92 % 0.0 mm
13:12 3.1 °C 1.9 °C 1011.7 hPa WSW 11.3 km/h 12.9 km/h 92 % 0.0 mm
13:17 3.1 °C 1.8 °C 1011.7 hPa WSW 9.7 km/h 12.9 km/h 91 % 0.0 mm
13:27 3.2 °C 1.7 °C 1011.4 hPa West 3.2 km/h 19.3 km/h 90 % 0.0 mm
13:32 3.3 °C 2.0 °C 1011.4 hPa West 9.7 km/h 19.3 km/h 91 % 0.0 mm
13:47 2.7 °C 1.4 °C 1011.4 hPa WSW 14.5 km/h 20.9 km/h 91 % 0.5 mm
13:52 2.6 °C 1.6 °C 1011.4 hPa West 11.3 km/h 20.9 km/h 93 % 0.5 mm
13:57 2.6 °C 1.6 °C 1011.4 hPa West 11.3 km/h 19.3 km/h 93 % 0.8 mm
14:12 1.8 °C 0.8 °C 1011.4 hPa NW 4.8 km/h 19.3 km/h 93 % 1.0 mm
14:22 2.1 °C 1.4 °C 1011.4 hPa West 1.6 km/h 12.9 km/h 95 % 1.3 mm
14:27 2.2 °C 1.3 °C 1011.1 hPa WNW 3.2 km/h 12.9 km/h 94 % 1.3 mm
14:42 2.8 °C 1.9 °C 1010.7 hPa SW 3.2 km/h 8.0 km/h 94 % 1.3 mm
14:47 3.1 °C 2.2 °C 1010.7 hPa SW 1.6 km/h 8.0 km/h 94 % 0.8 mm
14:57 3.3 °C 2.1 °C 1010.7 hPa WSW 8.0 km/h 12.9 km/h 92 % 0.5 mm
15:12 2.8 °C 1.3 °C 1011.1 hPa WNW 9.7 km/h 17.7 km/h 90 % 0.3 mm
15:22 1.5 °C 0.2 °C 1010.7 hPa WNW 9.7 km/h 19.3 km/h 91 % 0.5 mm
15:32 1.2 °C 0.2 °C 1011.1 hPa NW 4.8 km/h 19.3 km/h 93 % 0.5 mm
15:37 1.0 °C 0.0 °C 1011.1 hPa NNW 8.0 km/h 16.1 km/h 93 % 0.5 mm
15:57 0.6 °C -0.1 °C 1011.1 hPa WNW 4.8 km/h 14.5 km/h 95 % 0.8 mm
16:02 0.6 °C -0.1 °C 1011.1 hPa NNW 3.2 km/h 14.5 km/h 95 % 0.8 mm
16:12 0.7 °C 0.0 °C 1011.1 hPa West 1.6 km/h 8.0 km/h 95 % 0.5 mm
16:22 0.8 °C 0.1 °C 1011.1 hPa West 4.8 km/h 8.0 km/h 95 % 0.5 mm
16:32 0.9 °C 0.2 °C 1010.7 hPa West 1.6 km/h 9.7 km/h 95 % 0.5 mm
16:37 0.9 °C 0.2 °C 1010.7 hPa Calm   9.7 km/h 95 % 0.5 mm
16:47 1.1 °C 0.2 °C 1011.1 hPa WNW 4.8 km/h 6.4 km/h 94 % 0.5 mm
16:52 1.2 °C 0.3 °C 1011.1 hPa West 3.2 km/h 6.4 km/h 94 % 0.5 mm
17:02 1.3 °C 0.4 °C 1011.1 hPa WNW 3.2 km/h 8.0 km/h 94 % 0.5 mm
17:07 1.3 °C 0.4 °C 1011.1 hPa Calm   8.0 km/h 94 % 0.5 mm
17:12 1.3 °C 0.4 °C 1011.1 hPa WNW 1.6 km/h 8.0 km/h 94 % 0.5 mm
17:17 1.4 °C 0.5 °C 1011.1 hPa West 3.2 km/h 6.4 km/h 94 % 0.3 mm
17:22 1.6 °C 0.7 °C 1011.1 hPa WNW 8.0 km/h 8.0 km/h 94 % 0.3 mm
17:32 1.7 °C 0.5 °C 1011.1 hPa WNW 3.2 km/h 12.9 km/h 92 % 0.5 mm
17:37 1.7 °C 0.5 °C 1011.4 hPa West 3.2 km/h 12.9 km/h 92 % 0.5 mm
17:42 1.8 °C 0.6 °C 1011.1 hPa West 6.4 km/h 12.9 km/h 92 % 0.5 mm
17:52 1.8 °C 0.8 °C 1011.4 hPa WSW 6.4 km/h 12.9 km/h 93 % 0.3 mm
17:57 1.8 °C 0.8 °C 1011.4 hPa West 4.8 km/h 12.9 km/h 93 % 0.5 mm
18:02 1.7 °C 0.7 °C 1011.4 hPa WNW 6.4 km/h 11.3 km/h 93 % 0.5 mm
18:07 1.7 °C 0.7 °C 1011.1 hPa WNW 3.2 km/h 11.3 km/h 93 % 0.5 mm
18:12 1.7 °C 0.7 °C 1011.4 hPa West 3.2 km/h 11.3 km/h 93 % 0.5 mm
18:17 1.8 °C 0.8 °C 1011.1 hPa WNW 3.2 km/h 11.3 km/h 93 % 0.5 mm
18:22 1.7 °C 0.7 °C 1011.1 hPa West 1.6 km/h 9.7 km/h 93 % 0.5 mm
18:32 1.8 °C 0.6 °C 1011.4 hPa West 6.4 km/h 9.7 km/h 92 % 0.3 mm
18:37 1.8 °C 0.6 °C 1011.1 hPa West 1.6 km/h 9.7 km/h 92 % 0.3 mm
18:42 1.8 °C 0.6 °C 1011.4 hPa WNW 4.8 km/h 14.5 km/h 92 % 0.3 mm
18:52 1.8 °C 0.6 °C 1011.4 hPa NW 8.0 km/h 9.7 km/h 92 % 0.3 mm
19:02 1.4 °C -0.1 °C 1011.7 hPa NNW 19.3 km/h 19.3 km/h 90 % 0.3 mm
19:12 0.3 °C -0.7 °C 1011.4 hPa WNW 12.9 km/h 29.0 km/h 93 % 0.3 mm
19:22 0.2 °C -0.5 °C 1011.1 hPa WNW 1.6 km/h 30.6 km/h 95 % 0.3 mm
19:42 0.2 °C -0.4 °C 1011.1 hPa Calm   3.2 km/h 96 % 0.3 mm
19:47 0.2 °C -0.4 °C 1011.1 hPa Calm   1.6 km/h 96 % 0.0 mm
19:57 0.3 °C -0.3 °C 1010.7 hPa SW 3.2 km/h 4.8 km/h 96 % 0.0 mm
20:22 0.4 °C -0.2 °C 1010.7 hPa West 1.6 km/h 4.8 km/h 96 % 0.0 mm
20:27 0.4 °C -0.2 °C 1010.4 hPa SW 1.6 km/h 4.8 km/h 96 % 0.0 mm
20:32 0.4 °C -0.2 °C 1010.4 hPa Calm   4.8 km/h 96 % 0.0 mm
20:42 0.4 °C -0.2 °C 1010.4 hPa WNW 1.6 km/h 6.4 km/h 96 % 0.0 mm
20:52 0.6 °C 0.0 °C 1010.4 hPa Calm   6.4 km/h 96 % 0.0 mm
21:02 0.3 °C -0.4 °C 1010.4 hPa East 1.6 km/h 4.8 km/h 95 % 0.0 mm
21:12 0.1 °C -0.6 °C 1010.4 hPa Calm   1.6 km/h 95 % 0.0 mm
21:17 0.1 °C -0.5 °C 1010.4 hPa Calm   1.6 km/h 96 % 0.0 mm
21:27 0.2 °C -0.4 °C 1010.4 hPa NW 3.2 km/h 3.2 km/h 96 % 0.0 mm
21:32 0.2 °C -0.4 °C 1010.4 hPa WNW 8.0 km/h 8.0 km/h 96 % 0.0 mm
21:42 0.1 °C -0.5 °C 1010.4 hPa Calm   12.9 km/h 96 % 0.0 mm
21:47 0.1 °C -0.5 °C 1010.0 hPa WNW 1.6 km/h 12.9 km/h 96 % 0.0 mm
22:02 0.1 °C -0.5 °C 1010.0 hPa North 1.6 km/h 6.4 km/h 96 % 0.0 mm
22:12 0.0 °C -0.6 °C 1010.4 hPa Calm   4.8 km/h 96 % 0.0 mm
22:17 0.0 °C -0.6 °C 1010.4 hPa Calm   3.2 km/h 96 % 0.0 mm
22:22 -0.1 °C -0.7 °C 1010.7 hPa Calm   1.6 km/h 96 % 0.0 mm
22:27 -0.1 °C -0.7 °C 1010.7 hPa Calm   1.6 km/h 96 % 0.0 mm
22:32 -0.1 °C -0.7 °C 1010.7 hPa Calm   1.6 km/h 96 % 0.0 mm
22:37 -0.1 °C -0.7 °C 1010.7 hPa Calm   1.6 km/h 96 % 0.0 mm
22:42 -0.2 °C -0.8 °C 1010.7 hPa Calm   1.6 km/h 96 % 0.0 mm
22:57 -0.1 °C -0.7 °C 1010.7 hPa WNW 3.2 km/h 14.5 km/h 96 % 0.0 mm
23:02 -0.1 °C -0.7 °C 1010.7 hPa WNW 6.4 km/h 14.5 km/h 96 % 0.0 mm
23:07 -0.1 °C -0.7 °C 1010.7 hPa WNW 8.0 km/h 14.5 km/h 96 % 0.0 mm
23:12 -0.1 °C -0.7 °C 1010.7 hPa West 4.8 km/h 14.5 km/h 96 % 0.0 mm
23:22 -0.1 °C -0.8 °C 1010.7 hPa WSW 3.2 km/h 12.9 km/h 95 % 0.0 mm
23:27 -0.1 °C -0.8 °C 1010.7 hPa NW 4.8 km/h 9.7 km/h 95 % 0.0 mm
Meteo18
Compliments of Weather Underground - 4 mb

Script developed by  Jim McMurry - jmcmurry@mwt.net Adapted for the template by  Wim van der Kuil - Leuven-Template.eu

You find our weather info also at:

European Weather Network

Weather Underground

Equipment we use:

Weather-station
Davis Vue

Weather-program
Meteohub

Weather-server
Raspberry PI 2 B+

Provider
1 and 1

Davis Vue

Meteohub

Raspberry PI 2 B+

1 and 1